Airfield :
LOGIN :

Register | Disclaimer

   EN    FR    IT 

 










Legend :    VFR   Marginal VFR   IFR   Intensive IFR   Very Intensive IFR
Visi :
Ceiling :
>= 8 km
>= 3000ft
5 to 8 km
1000 to 3000 ft
1500m to 5 km
500 to 1000 ft
800 to 1500m
200 to 500 ft
< 800m
< 200 ft
Symbols :   Thunderstorms  Fog  Heavy snow  Heavy precipitations  Wind > 20 kt
SIGMETs :     Misc.  Thunderstorms  Icing  Turbulence  Mountain Waves  Volcanic Ashes






- Airport Elevation : 87 ft
- IATA code : FSC


LFKF - Figari

CURRENT METAR :
  • 271800Z AUTO 24019KT 9999 -RA FEW016/// BKN023/// BKN030/// ///CB 12/11 Q1011 TEMPO 28020G35KT SHRA

EXPIRED METARs :
  • 271730Z AUTO 24022G32KT 9999 BKN024/// BKN031/// OVC040/// ///CB 14/09 Q1012 TEMPO SHRA
  • 271700Z AUTO 25021KT 9999 BKN027/// BKN032/// OVC039/// ///TCU 13/08 Q1012 TEMPO 28020G35KT SHRA
  • 271630Z AUTO 24023G33KT 9999 BKN028/// BKN037/// OVC048/// ///TCU 13/08 Q1013 TEMPO SHRA
  • 271600Z AUTO 24019G30KT 9999 BKN028/// BKN034/// OVC068/// ///TCU 13/07 Q1013 TEMPO SHRA
  • 271530Z AUTO 25020KT 9999 BKN029/// BKN035/// BKN048/// ///TCU 13/07 Q1013 TEMPO 28020G35KT SHRA

TAF AMD TAF LFKF
Valid from the 27 at 17:00 until the 28 at 15:00 UTC


271756Z 2717/2815 28015G30KT 9999 BKN030
TEMPO 2717/2720 28020G35KT 4000 SHRA BKN014 FEW020CB BKN025
TEMPO 2720/2722 28020G35KT SHRA SCT015 FEW020CB BKN025
BECMG 2722/2723 29030G50KT
BECMG 2805/2808 28010KT



MET'MAP, your aeronautical weather chart ! - Copyright ORBIFLY December 2007 - Disclaimer

ORBIFLY MET'MAP TEAM :

Programming & Development : Alexandra Zaïnal
Concept & original design : Baudouin d'Aumeries
Assistance for programming : Marc-Olivier Méhu
Technical & hardware support : Manuel Goepfert

Contact : metmap@orbifly.com




SOURCES & CREDITS :

   NOAA